Time;durP1;ratioP1;P1;durP2;ratioP2;P2;SDS_P1;SDS_P2;PMS_P1;PMS_P2;Temp;Humidity;BMP_temperature;BMP_pressure;BME280_temperature;BME280_humidity;BME280_pressure;Samples;Min_cycle;Max_cycle;Signal;HPM_P1;HPM_P2
2022/03/17 00:00:03;;;;;;;;;;;12.90;99.90;13.50;99957.00;;;;337614;28;96331;-87
2022/03/17 00:00:16;;;;;;;;;;;12.90;99.90;13.50;99957.00;;;;338861;28;91968;-86
2022/03/17 00:00:27;;;;;;;;;;;12.90;99.90;13.40;99955.00;;;;334947;29;95035;-87
2022/03/17 00:00:39;;;;;;;;;;;13.00;99.90;13.40;99956.00;;;;334928;29;91283;-87
2022/03/17 00:00:51;;;;;;;;;;;13.00;99.90;13.50;99968.00;;;;335040;29;94950;-87
2022/03/17 00:01:03;;;;;;;;;;;13.00;99.90;13.40;99957.00;;;;338765;28;91948;-87
2022/03/17 00:01:15;;;;;;;;;;;13.00;99.90;13.30;99956.00;;;;336308;28;96984;-86
2022/03/17 00:01:26;;;;;;;;;;;13.00;99.90;13.30;99957.00;;;;336127;28;91184;-87
2022/03/17 00:01:38;;;;;;;;;;;13.00;99.90;13.30;99960.00;;;;333570;29;95530;-87
2022/03/17 00:01:50;;;;;;;;;;;13.00;99.90;13.30;99955.00;;;;334827;28;91057;-87
2022/03/17 00:02:03;;;;;;;;;;;13.00;99.90;13.30;99951.00;;;;336360;28;93923;-87
2022/03/17 00:02:15;;;;;;;;;;;12.90;99.90;13.30;99957.00;;;;336174;28;92166;-87
2022/03/17 00:02:26;;;;;;;;;;;13.00;99.90;13.30;99957.00;;;;337124;28;95106;-87
2022/03/17 00:02:38;;;;;;;;;;;13.00;99.90;13.30;99968.00;;;;338705;28;91422;-86
2022/03/17 00:02:50;;;;;;;;;;;12.90;99.90;13.30;99965.00;;;;336069;28;93209;-86
2022/03/17 00:03:02;;;;;;;;;;;12.90;99.90;13.30;99964.00;;;;336153;28;92037;-86
2022/03/17 00:03:14;;;;;;;;;;;13.00;99.90;13.30;99969.00;;;;336421;28;93265;-86
2022/03/17 00:03:26;;;;;;;;;;;12.90;99.90;13.20;99969.00;;;;337423;28;92024;-87
2022/03/17 00:03:38;;;;;;;;;;;12.90;99.90;13.20;99966.00;;;;336298;28;94410;-86
2022/03/17 00:03:50;;;;;;;;;;;12.90;99.90;13.20;99968.00;;;;334769;29;92074;-86
2022/03/17 00:04:02;;;;;;;;;;;12.90;99.90;13.20;99962.00;;;;336371;28;96661;-87
2022/03/17 00:04:14;;;;;;;;;;;12.90;99.90;13.20;99966.00;;;;336214;28;91960;-87
2022/03/17 00:04:26;;;;;;;;;;;12.90;99.90;13.30;99959.00;;;;337708;28;95899;-87
2022/03/17 00:04:37;;;;;;;;;;;12.90;99.90;13.20;99963.00;;;;336122;28;91319;-87
2022/03/17 00:04:51;;;;;;;;;;;12.90;99.90;13.20;99968.00;;;;337406;28;95841;-87
2022/03/17 00:05:04;;;;;;;;;;;12.90;99.90;13.20;99969.00;;;;337357;28;92045;-87
2022/03/17 00:05:16;;;;;;;;;;;12.90;99.90;13.10;99964.00;;;;336392;28;96520;-87
2022/03/17 00:05:27;;;;;;;;;;;12.90;99.90;13.20;99966.00;;;;334788;29;91957;-86
2022/03/17 00:05:39;;;;;;;;;;;12.90;99.90;13.20;99964.00;;;;333804;29;93569;-87
2022/03/17 00:05:51;;;;;;;;;;;12.90;99.90;13.30;99960.00;;;;334770;29;92032;-87
2022/03/17 00:06:03;;;;;;;;;;;12.90;99.90;13.30;99963.00;;;;333792;29;95504;-87
2022/03/17 00:06:17;;;;;;;;;;;12.90;99.90;13.30;99959.00;;;;334813;29;92001;-87
2022/03/17 00:06:28;;;;;;;;;;;12.90;99.90;13.30;99960.00;;;;336425;28;93809;-87
2022/03/17 00:06:41;;;;;;;;;;;12.90;99.90;13.30;99954.00;;;;337416;28;91186;-86
2022/03/17 00:06:53;;;;;;;;;;;12.90;99.90;13.30;99961.00;;;;336333;28;92867;-87
2022/03/17 00:07:05;;;;;;;;;;;12.90;99.90;13.20;99960.00;;;;337541;28;91913;-87
2022/03/17 00:07:17;;;;;;;;;;;12.90;99.90;13.20;99968.00;;;;335083;29;95713;-87
2022/03/17 00:07:30;;;;;;;;;;;12.90;99.90;13.20;99968.00;;;;334873;29;92017;-87
2022/03/17 00:07:42;;;;;;;;;;;12.90;99.90;13.20;99971.00;;;;336349;28;92765;-87
2022/03/17 00:07:54;;;;;;;;;;;12.90;99.90;13.20;99958.00;;;;337073;28;92208;-87
2022/03/17 00:08:06;;;;;;;;;;;12.90;99.90;13.20;99965.00;;;;336632;28;95516;-87
2022/03/17 00:08:18;;;;;;;;;;;12.90;99.90;13.20;99971.00;;;;337418;28;92091;-86
2022/03/17 00:08:29;;;;;;;;;;;12.90;99.90;13.10;99971.00;;;;337673;28;96634;-86
2022/03/17 00:08:41;;;;;;;;;;;12.90;99.90;13.00;99969.00;;;;334911;29;91230;-86
2022/03/17 00:08:54;;;;;;;;;;;12.90;99.90;13.10;99971.00;;;;336214;28;95537;-87
2022/03/17 00:09:07;;;;;;;;;;;12.90;99.90;13.10;99970.00;;;;336101;28;92115;-87
2022/03/17 00:09:18;;;;;;;;;;;12.90;99.90;13.20;99976.00;;;;337670;28;96263;-87
2022/03/17 00:09:30;;;;;;;;;;;12.90;99.90;13.20;99968.00;;;;337513;28;91931;-87
2022/03/17 00:09:42;;;;;;;;;;;12.90;99.90;13.20;99975.00;;;;338991;28;93804;-87
2022/03/17 00:09:54;;;;;;;;;;;12.80;99.90;13.20;99968.00;;;;338690;28;92051;-86
2022/03/17 00:10:07;;;;;;;;;;;12.90;99.90;13.20;99971.00;;;;338677;28;97347;-86
2022/03/17 00:10:19;;;;;;;;;;;12.80;99.90;13.20;99975.00;;;;336072;28;92175;-87
2022/03/17 00:10:30;;;;;;;;;;;12.90;99.90;13.20;99966.00;;;;335033;29;95813;-86
2022/03/17 00:10:42;;;;;;;;;;;12.90;99.90;13.20;99977.00;;;;334823;29;91300;-87
2022/03/17 00:10:54;;;;;;;;;;;12.90;99.90;13.20;99976.00;;;;335989;28;95211;-87
2022/03/17 00:11:06;;;;;;;;;;;12.90;99.90;13.30;99974.00;;;;335948;28;92010;-86
2022/03/17 00:11:18;;;;;;;;;;;12.90;99.90;13.40;99975.00;;;;335071;29;93807;-87
2022/03/17 00:11:31;;;;;;;;;;;12.90;99.90;13.40;99970.00;;;;333504;29;92019;-87
2022/03/17 00:11:42;;;;;;;;;;;12.90;99.90;13.40;99968.00;;;;334933;29;96033;-86
2022/03/17 00:11:54;;;;;;;;;;;12.90;99.90;13.40;99961.00;;;;337714;28;91959;-87
2022/03/17 00:12:08;;;;;;;;;;;12.90;99.90;13.40;99972.00;;;;337688;28;95286;-87
2022/03/17 00:12:21;;;;;;;;;;;12.90;99.90;13.50;99968.00;;;;335369;29;91391;-86
2022/03/17 00:12:39;;;;;;;;;;;12.90;99.90;13.50;99972.00;;;;338418;28;94441;-86
2022/03/17 00:12:59;;;;;;;;;;;12.90;99.90;13.40;99968.00;;;;337180;28;91295;-87
2022/03/17 00:13:11;;;;;;;;;;;13.00;99.90;13.40;99971.00;;;;337280;28;94248;-86
2022/03/17 00:13:23;;;;;;;;;;;12.90;99.90;13.40;99965.00;;;;335557;29;91280;-87
2022/03/17 00:13:35;;;;;;;;;;;12.90;99.90;13.40;99968.00;;;;338343;28;95281;-86
2022/03/17 00:13:46;;;;;;;;;;;12.90;99.90;13.40;99966.00;;;;336578;28;92059;-86
2022/03/17 00:13:58;;;;;;;;;;;13.00;99.90;13.40;99965.00;;;;337933;28;95802;-86
2022/03/17 00:14:10;;;;;;;;;;;13.00;99.90;13.40;99962.00;;;;338002;28;91968;-87
2022/03/17 00:14:22;;;;;;;;;;;13.00;99.90;13.40;99960.00;;;;339023;28;96511;-87
2022/03/17 00:14:35;;;;;;;;;;;13.00;99.90;13.30;99972.00;;;;336185;28;91955;-87
2022/03/17 00:14:46;;;;;;;;;;;13.00;99.90;13.30;99968.00;;;;338973;28;93977;-86
2022/03/17 00:14:58;;;;;;;;;;;13.00;99.90;13.40;99969.00;;;;337405;28;91312;-87
2022/03/17 00:15:10;;;;;;;;;;;13.00;99.90;13.40;99971.00;;;;335056;29;95303;-87
2022/03/17 00:15:22;;;;;;;;;;;13.00;99.90;13.30;99981.00;;;;337468;28;91930;-87
2022/03/17 00:15:34;;;;;;;;;;;12.90;99.90;13.30;99972.00;;;;337584;28;96138;-87
2022/03/17 00:15:46;;;;;;;;;;;13.00;99.90;13.30;99966.00;;;;337415;28;92036;-86
2022/03/17 00:15:57;;;;;;;;;;;12.90;99.90;13.30;99972.00;;;;339088;28;93521;-87
2022/03/17 00:16:10;;;;;;;;;;;13.00;99.90;13.30;99968.00;;;;337369;28;92402;-86
2022/03/17 00:16:22;;;;;;;;;;;13.00;99.90;13.40;99969.00;;;;337229;28;96074;-86
2022/03/17 00:16:34;;;;;;;;;;;12.90;99.90;13.40;99969.00;;;;336146;28;91962;-87
2022/03/17 00:16:46;;;;;;;;;;;13.00;99.90;13.40;99972.00;;;;337626;28;95901;-87
2022/03/17 00:16:58;;;;;;;;;;;13.00;99.90;13.40;99967.00;;;;335656;28;91523;-87
2022/03/17 00:17:10;;;;;;;;;;;13.00;99.90;13.40;99966.00;;;;336305;28;94453;-86
2022/03/17 00:17:22;;;;;;;;;;;13.00;99.90;13.30;99970.00;;;;334428;29;91203;-87
2022/03/17 00:17:34;;;;;;;;;;;13.00;99.90;13.30;99973.00;;;;335035;29;96567;-87
2022/03/17 00:17:46;;;;;;;;;;;13.00;99.90;13.30;99968.00;;;;333504;29;92055;-86
2022/03/17 00:17:58;;;;;;;;;;;12.90;99.90;13.30;99980.00;;;;336226;28;95982;-87
2022/03/17 00:18:10;;;;;;;;;;;13.00;99.90;13.30;99971.00;;;;336233;28;92010;-87
2022/03/17 00:18:21;;;;;;;;;;;13.00;99.90;13.40;99982.00;;;;335015;29;93611;-87
2022/03/17 00:18:33;;;;;;;;;;;12.90;99.90;13.40;99970.00;;;;337428;28;91254;-87
2022/03/17 00:18:46;;;;;;;;;;;13.00;99.90;13.40;99975.00;;;;337555;28;95426;-86
2022/03/17 00:19:07;;;;;;;;;;;13.00;99.90;13.30;99974.00;;;;334888;29;91401;-87
2022/03/17 00:19:19;;;;;;;;;;;13.00;99.90;13.30;99973.00;;;;334891;29;95107;-87
2022/03/17 00:19:31;;;;;;;;;;;13.00;99.90;13.20;99972.00;;;;334886;29;91185;-87
2022/03/17 00:19:43;;;;;;;;;;;12.90;99.90;13.20;99971.00;;;;335146;29;92771;-87
2022/03/17 00:19:55;;;;;;;;;;;12.90;99.90;13.20;99968.00;;;;336998;28;92240;-87
2022/03/17 00:20:07;;;;;;;;;;;12.90;99.90;13.10;99975.00;;;;334949;29;96711;-87
2022/03/17 00:20:19;;;;;;;;;;;13.00;99.90;13.10;99969.00;;;;334725;29;92083;-87
2022/03/17 00:20:31;;;;;;;;;;;12.90;99.90;13.10;99969.00;;;;336387;28;92044;-86
2022/03/17 00:20:43;;;;;;;;;;;12.90;99.90;13.10;99968.00;;;;336138;28;92029;-87
2022/03/17 00:20:55;;;;;;;;;;;12.90;99.90;13.20;99971.00;;;;336189;28;93740;-86
2022/03/17 00:21:06;;;;;;;;;;;12.90;99.90;13.20;99975.00;;;;336093;28;91282;-87
2022/03/17 00:21:18;;;;;;;;;;;12.90;99.90;13.10;99973.00;;;;336377;28;95293;-87
2022/03/17 00:21:30;;;;;;;;;;;12.90;99.90;13.10;99975.00;;;;333306;29;92112;-86
2022/03/17 00:21:42;;;;;;;;;;;12.90;99.90;13.10;99965.00;;;;336309;28;95535;-87
2022/03/17 00:21:53;;;;;;;;;;;12.90;99.90;13.10;99968.00;;;;334802;29;91970;-86
2022/03/17 00:22:08;;;;;;;;;;;12.90;99.90;13.10;99979.00;;;;336449;28;93098;-87
2022/03/17 00:22:20;;;;;;;;;;;12.90;99.90;13.10;99974.00;;;;334744;29;92112;-86
2022/03/17 00:22:33;;;;;;;;;;;12.90;99.90;13.10;99978.00;;;;335006;29;95948;-86
2022/03/17 00:22:45;;;;;;;;;;;12.80;99.90;13.10;99977.00;;;;337425;28;92026;-87
2022/03/17 00:22:56;;;;;;;;;;;12.80;99.90;13.10;99975.00;;;;336812;28;96240;-87
2022/03/17 00:23:08;;;;;;;;;;;12.80;99.90;13.10;99976.00;;;;338702;28;91255;-87
2022/03/17 00:23:22;;;;;;;;;;;12.80;99.90;13.00;99977.00;;;;337669;28;92797;-86
2022/03/17 00:23:34;;;;;;;;;;;12.80;99.90;12.90;99975.00;;;;336011;28;92086;-87
2022/03/17 00:23:46;;;;;;;;;;;12.80;99.90;12.90;99980.00;;;;336341;28;93655;-86
2022/03/17 00:23:57;;;;;;;;;;;12.80;99.90;12.90;99977.00;;;;337404;28;92087;-87
2022/03/17 00:24:09;;;;;;;;;;;12.80;99.90;12.80;99977.00;;;;337748;28;92023;-87
2022/03/17 00:24:21;;;;;;;;;;;12.80;99.90;12.80;99974.00;;;;338780;28;92153;-87
2022/03/17 00:24:33;;;;;;;;;;;12.80;99.90;12.80;99982.00;;;;336358;28;93696;-86
2022/03/17 00:24:46;;;;;;;;;;;12.70;99.90;12.90;99981.00;;;;335810;28;92545;-87
2022/03/17 00:24:58;;;;;;;;;;;12.70;99.90;12.80;99977.00;;;;337550;28;91810;-86
2022/03/17 00:25:10;;;;;;;;;;;12.70;99.90;12.80;99981.00;;;;337454;28;91249;-87
2022/03/17 00:25:22;;;;;;;;;;;12.70;99.90;12.80;99980.00;;;;339152;28;92054;-86
2022/03/17 00:25:34;;;;;;;;;;;12.70;99.90;12.80;99976.00;;;;338787;28;91994;-87
2022/03/17 00:25:45;;;;;;;;;;;12.70;99.90;12.90;99979.00;;;;337648;28;94775;-86
2022/03/17 00:25:57;;;;;;;;;;;12.70;99.90;12.90;99980.00;;;;336693;28;92221;-87
2022/03/17 00:26:09;;;;;;;;;;;12.70;99.90;12.80;99982.00;;;;336236;28;95604;-86
2022/03/17 00:26:21;;;;;;;;;;;12.70;99.90;12.80;99983.00;;;;335845;28;92094;-86
2022/03/17 00:26:34;;;;;;;;;;;12.70;99.90;12.80;99977.00;;;;336302;28;94910;-87
2022/03/17 00:26:46;;;;;;;;;;;12.70;99.90;12.80;99986.00;;;;336073;28;91984;-87
2022/03/17 00:26:59;;;;;;;;;;;12.70;99.90;12.80;99982.00;;;;337490;28;96418;-87
2022/03/17 00:27:11;;;;;;;;;;;12.70;99.90;12.80;99977.00;;;;337078;28;91328;-86
2022/03/17 00:27:22;;;;;;;;;;;12.60;99.90;12.80;99977.00;;;;336378;28;95489;-87
2022/03/17 00:27:34;;;;;;;;;;;12.60;99.90;12.80;99976.00;;;;334739;29;91981;-86
2022/03/17 00:27:46;;;;;;;;;;;12.60;99.90;12.90;99981.00;;;;337688;28;93952;-87
2022/03/17 00:27:58;;;;;;;;;;;12.60;99.90;12.90;99981.00;;;;336044;28;91258;-87
2022/03/17 00:28:10;;;;;;;;;;;12.60;99.90;12.90;99982.00;;;;336409;28;93553;-87
2022/03/17 00:28:22;;;;;;;;;;;12.60;99.90;12.90;99973.00;;;;334762;29;92026;-87
2022/03/17 00:28:34;;;;;;;;;;;12.60;99.90;12.90;99981.00;;;;335023;29;93737;-87
2022/03/17 00:28:45;;;;;;;;;;;12.60;99.90;12.90;99978.00;;;;336114;28;91192;-86
2022/03/17 00:28:58;;;;;;;;;;;12.60;99.90;12.90;99980.00;;;;335727;28;93663;-88
2022/03/17 00:29:10;;;;;;;;;;;12.60;99.90;12.90;99980.00;;;;336027;28;91022;-86
2022/03/17 00:29:22;;;;;;;;;;;12.70;99.90;13.00;99977.00;;;;334409;29;95753;-87
2022/03/17 00:29:34;;;;;;;;;;;12.60;99.90;13.00;99977.00;;;;334706;29;91198;-87
2022/03/17 00:29:46;;;;;;;;;;;12.60;99.90;13.00;99973.00;;;;336286;28;96449;-87
2022/03/17 00:29:58;;;;;;;;;;;12.60;99.90;13.00;99976.00;;;;337299;28;91182;-86
2022/03/17 00:30:10;;;;;;;;;;;12.60;99.90;13.00;99975.00;;;;337702;28;94583;-87
2022/03/17 00:30:22;;;;;;;;;;;12.60;99.90;13.00;99978.00;;;;336072;28;92130;-86
2022/03/17 00:30:34;;;;;;;;;;;12.60;99.90;13.00;99981.00;;;;337686;28;93548;-86
2022/03/17 00:30:46;;;;;;;;;;;12.60;99.90;13.00;99968.00;;;;336208;28;91911;-87
2022/03/17 00:30:57;;;;;;;;;;;12.60;99.90;13.00;99968.00;;;;336374;28;93518;-86
2022/03/17 00:31:09;;;;;;;;;;;12.70;99.90;13.00;99975.00;;;;336049;28;91261;-87
2022/03/17 00:31:21;;;;;;;;;;;12.70;99.90;13.00;99973.00;;;;335085;29;95598;-87
2022/03/17 00:31:34;;;;;;;;;;;12.60;99.90;12.90;99978.00;;;;336004;28;92049;-87
2022/03/17 00:31:46;;;;;;;;;;;12.60;99.90;12.90;99987.00;;;;337490;28;95986;-86
2022/03/17 00:31:59;;;;;;;;;;;12.60;99.90;12.90;99977.00;;;;336781;28;92330;-87
2022/03/17 00:32:10;;;;;;;;;;;12.60;99.90;13.00;99981.00;;;;337625;28;92102;-87
2022/03/17 00:32:23;;;;;;;;;;;12.60;99.90;12.90;99975.00;;;;337352;28;91174;-86
2022/03/17 00:32:35;;;;;;;;;;;12.60;99.90;12.90;99979.00;;;;336298;28;96493;-87
2022/03/17 00:32:47;;;;;;;;;;;12.60;99.90;12.90;99973.00;;;;336149;28;91949;-87
2022/03/17 00:32:59;;;;;;;;;;;12.60;99.90;13.00;99976.00;;;;337440;28;96157;-86
2022/03/17 00:33:11;;;;;;;;;;;12.60;99.90;13.00;99977.00;;;;338751;28;91282;-86
2022/03/17 00:33:23;;;;;;;;;;;12.60;99.90;13.00;99973.00;;;;339103;28;92386;-86
2022/03/17 00:33:35;;;;;;;;;;;12.60;99.90;13.00;99977.00;;;;336160;28;91794;-87
2022/03/17 00:33:46;;;;;;;;;;;12.60;99.90;13.00;99974.00;;;;334995;29;96601;-87
2022/03/17 00:33:58;;;;;;;;;;;12.60;99.90;13.00;99972.00;;;;336157;28;91892;-87
2022/03/17 00:34:10;;;;;;;;;;;12.60;99.90;13.00;99978.00;;;;337655;28;93136;-87
2022/03/17 00:34:22;;;;;;;;;;;12.60;99.90;12.90;99978.00;;;;336100;28;92024;-86
2022/03/17 00:35:35;;;;;;;;;;;12.60;99.90;13.00;99978.00;;;;336329;28;95769;-87
2022/03/17 00:35:42;;;;;;;;;;;12.60;99.90;12.90;99980.00;;;;333379;29;92982;-86
2022/03/17 00:35:54;;;;;;;;;;;12.60;99.90;12.90;99968.00;;;;335067;28;91193;-87
2022/03/17 00:36:05;;;;;;;;;;;12.60;99.90;12.90;99977.00;;;;337625;28;94561;-87
2022/03/17 00:36:17;;;;;;;;;;;12.60;99.90;12.90;99983.00;;;;336112;28;91285;-87
2022/03/17 00:36:29;;;;;;;;;;;12.60;99.90;12.90;99976.00;;;;336443;28;93427;-87
2022/03/17 00:36:41;;;;;;;;;;;12.60;99.90;12.90;99976.00;;;;336138;28;91995;-87
2022/03/17 00:36:52;;;;;;;;;;;12.60;99.90;12.80;99980.00;;;;336256;28;96487;-86
2022/03/17 00:37:04;;;;;;;;;;;12.60;99.90;12.90;99985.00;;;;337372;28;91090;-87
2022/03/17 00:37:16;;;;;;;;;;;12.60;99.90;12.90;99982.00;;;;336423;28;93332;-87
2022/03/17 00:37:28;;;;;;;;;;;12.60;99.90;12.90;99978.00;;;;336189;28;91898;-87
2022/03/17 00:37:39;;;;;;;;;;;12.60;99.90;12.80;99976.00;;;;335043;29;93300;-87
2022/03/17 00:37:51;;;;;;;;;;;12.60;99.90;12.80;99984.00;;;;335716;28;91294;-87
2022/03/17 00:38:03;;;;;;;;;;;12.60;99.90;12.90;99979.00;;;;335888;28;94909;-86
2022/03/17 00:38:16;;;;;;;;;;;12.60;99.90;12.80;99984.00;;;;337500;28;91875;-86
2022/03/17 00:38:28;;;;;;;;;;;12.60;99.90;12.80;99976.00;;;;337519;28;94734;-86
2022/03/17 00:38:40;;;;;;;;;;;12.60;99.90;12.80;99976.00;;;;338746;28;91964;-87
2022/03/17 00:38:51;;;;;;;;;;;12.60;99.90;12.80;99982.00;;;;337672;28;93143;-86
2022/03/17 00:39:04;;;;;;;;;;;12.60;99.90;12.80;99982.00;;;;336096;28;91967;-87
2022/03/17 00:39:16;;;;;;;;;;;12.60;99.90;12.80;99980.00;;;;336487;28;92370;-86
2022/03/17 00:39:27;;;;;;;;;;;12.60;99.90;12.80;99979.00;;;;337501;28;91930;-87
2022/03/17 00:39:39;;;;;;;;;;;12.50;99.90;12.80;99977.00;;;;337646;28;94041;-87
2022/03/17 00:39:51;;;;;;;;;;;12.60;99.90;12.80;99974.00;;;;337528;28;91189;-86
2022/03/17 00:40:04;;;;;;;;;;;12.60;99.90;12.80;99986.00;;;;336387;28;92780;-87
2022/03/17 00:40:15;;;;;;;;;;;12.50;99.90;12.80;99982.00;;;;337304;28;92090;-87
2022/03/17 00:40:28;;;;;;;;;;;12.50;99.90;12.80;99973.00;;;;337556;28;96304;-87
2022/03/17 00:40:41;;;;;;;;;;;12.50;99.90;12.80;99979.00;;;;338675;28;91077;-87
2022/03/17 00:40:53;;;;;;;;;;;12.50;99.90;12.80;99977.00;;;;337225;28;93645;-86
2022/03/17 00:41:04;;;;;;;;;;;12.50;99.90;12.80;99979.00;;;;334566;29;92137;-86
2022/03/17 00:41:16;;;;;;;;;;;12.50;99.90;12.80;99975.00;;;;336274;28;96259;-87
2022/03/17 00:41:28;;;;;;;;;;;12.50;99.90;12.90;99981.00;;;;337385;28;92020;-86
2022/03/17 00:41:40;;;;;;;;;;;12.50;99.90;12.90;99975.00;;;;336270;28;93935;-87
2022/03/17 00:41:52;;;;;;;;;;;12.50;99.90;12.80;99985.00;;;;334720;29;91276;-87
2022/03/17 00:42:04;;;;;;;;;;;12.50;99.90;12.80;99985.00;;;;336376;28;95767;-86
2022/03/17 00:42:16;;;;;;;;;;;12.60;99.90;12.80;99980.00;;;;334764;29;92041;-87
2022/03/17 00:42:28;;;;;;;;;;;12.50;99.90;12.80;99980.00;;;;334994;29;95136;-87
2022/03/17 00:42:40;;;;;;;;;;;12.50;99.90;12.90;99983.00;;;;336143;28;91981;-86
2022/03/17 00:42:55;;;;;;;;;;;12.50;99.90;12.90;99982.00;;;;337553;28;95995;-87
2022/03/17 00:43:12;;;;;;;;;;;12.50;99.90;12.90;99978.00;;;;336119;28;90977;-86
2022/03/17 00:43:24;;;;;;;;;;;12.50;99.90;12.90;99976.00;;;;336355;28;96295;-87
2022/03/17 00:43:36;;;;;;;;;;;12.60;99.90;12.90;99973.00;;;;338666;28;91934;-86
2022/03/17 00:43:53;;;;;;;;;;;12.60;99.90;12.90;99977.00;;;;336955;28;95637;-87
2022/03/17 00:44:05;;;;;;;;;;;12.60;99.90;13.00;99975.00;;;;335880;28;91298;-87
2022/03/17 00:44:16;;;;;;;;;;;12.60;99.90;13.00;99975.00;;;;335046;29;92452;-87
2022/03/17 00:44:28;;;;;;;;;;;12.60;99.90;12.90;99981.00;;;;337282;28;92057;-86
2022/03/17 00:44:41;;;;;;;;;;;12.60;99.90;12.90;99983.00;;;;336277;28;96623;-86
2022/03/17 00:44:54;;;;;;;;;;;12.60;99.90;12.90;99980.00;;;;336029;28;91190;-86
2022/03/17 00:45:09;;;;;;;;;;;12.60;99.90;12.90;99983.00;;;;336334;28;95979;-87
2022/03/17 00:45:24;;;;;;;;;;;12.60;99.90;12.90;99985.00;;;;337416;28;92017;-86
2022/03/17 00:45:36;;;;;;;;;;;12.60;99.90;12.90;99986.00;;;;336340;28;93339;-87
2022/03/17 00:45:47;;;;;;;;;;;12.60;99.90;12.90;99975.00;;;;337396;28;91875;-86
2022/03/17 00:45:59;;;;;;;;;;;12.60;99.90;12.90;99984.00;;;;339070;28;93743;-87
2022/03/17 00:46:11;;;;;;;;;;;12.60;99.90;12.90;99983.00;;;;340094;28;91223;-87
2022/03/17 00:46:23;;;;;;;;;;;12.60;99.90;12.90;99982.00;;;;337698;28;91293;-87
2022/03/17 00:46:36;;;;;;;;;;;12.60;99.90;12.90;99976.00;;;;337375;28;91901;-87
2022/03/17 00:46:47;;;;;;;;;;;12.60;99.90;12.80;99985.00;;;;337651;28;93246;-86
2022/03/17 00:47:01;;;;;;;;;;;12.60;99.90;12.80;99983.00;;;;334398;29;92124;-86
2022/03/17 00:47:13;;;;;;;;;;;12.60;99.90;12.80;99972.00;;;;336211;28;97589;-87
2022/03/17 00:47:25;;;;;;;;;;;12.60;99.90;12.90;99984.00;;;;335330;28;92058;-86
2022/03/17 00:47:37;;;;;;;;;;;12.60;99.90;12.90;99989.00;;;;334928;29;95726;-87
2022/03/17 00:47:49;;;;;;;;;;;12.60;99.90;12.90;99982.00;;;;336104;28;91946;-87
2022/03/17 00:48:02;;;;;;;;;;;12.60;99.90;12.90;99985.00;;;;333795;29;95998;-87
2022/03/17 00:48:13;;;;;;;;;;;12.60;99.90;12.90;99982.00;;;;334889;29;91163;-87
2022/03/17 00:48:25;;;;;;;;;;;12.60;99.90;12.90;99985.00;;;;337628;28;93875;-87
2022/03/17 00:48:37;;;;;;;;;;;12.60;99.90;12.90;99986.00;;;;337447;28;92016;-87
2022/03/17 00:48:49;;;;;;;;;;;12.60;99.90;12.90;99978.00;;;;337591;28;93606;-87
2022/03/17 00:49:02;;;;;;;;;;;12.60;99.90;12.90;99984.00;;;;334762;29;92130;-87
2022/03/17 00:49:14;;;;;;;;;;;12.60;99.90;13.00;99984.00;;;;335054;29;93510;-86
2022/03/17 00:49:26;;;;;;;;;;;12.60;99.90;13.10;99980.00;;;;336097;28;91211;-87
2022/03/17 00:49:38;;;;;;;;;;;12.60;99.90;13.10;99978.00;;;;334916;29;95692;-87
2022/03/17 00:49:49;;;;;;;;;;;12.60;99.90;13.20;99988.00;;;;334588;28;92025;-87
2022/03/17 00:50:01;;;;;;;;;;;12.60;99.90;13.30;99981.00;;;;332871;29;95860;-86
2022/03/17 00:50:13;;;;;;;;;;;12.60;99.90;13.30;99984.00;;;;333375;29;91770;-87
2022/03/17 00:50:25;;;;;;;;;;;12.70;99.90;13.30;99984.00;;;;333603;29;94954;-87
2022/03/17 00:50:37;;;;;;;;;;;12.60;99.90;13.30;99986.00;;;;333624;29;91858;-87
2022/03/17 00:50:48;;;;;;;;;;;12.70;99.90;13.40;99986.00;;;;333681;29;96355;-86
2022/03/17 00:51:00;;;;;;;;;;;12.70;99.90;13.30;99979.00;;;;332196;29;92041;-86
2022/03/17 00:51:12;;;;;;;;;;;12.70;99.90;13.30;99987.00;;;;333734;29;95707;-86
2022/03/17 00:51:24;;;;;;;;;;;12.70;99.90;13.30;99984.00;;;;333476;29;92038;-86
2022/03/17 00:51:35;;;;;;;;;;;12.70;99.90;13.20;99988.00;;;;334972;29;96446;-87
2022/03/17 00:51:47;;;;;;;;;;;12.80;99.90;13.20;99986.00;;;;333551;29;91873;-87
2022/03/17 00:51:59;;;;;;;;;;;12.70;99.90;13.20;99985.00;;;;333831;29;92007;-87
2022/03/17 00:52:11;;;;;;;;;;;12.70;99.90;13.20;99978.00;;;;333551;29;91397;-86
2022/03/17 00:52:23;;;;;;;;;;;12.80;99.90;13.20;99985.00;;;;335013;29;92816;-86
2022/03/17 00:52:35;;;;;;;;;;;12.80;99.90;13.20;99989.00;;;;336151;28;91933;-87
2022/03/17 00:52:47;;;;;;;;;;;12.80;99.90;13.20;99985.00;;;;336434;28;92748;-87
2022/03/17 00:53:00;;;;;;;;;;;12.70;99.90;13.20;99980.00;;;;334449;29;92101;-86
2022/03/17 00:53:12;;;;;;;;;;;12.80;99.90;13.20;99982.00;;;;333638;29;93973;-86
2022/03/17 00:53:24;;;;;;;;;;;12.70;99.90;13.20;99986.00;;;;334482;29;91875;-87
2022/03/17 00:53:36;;;;;;;;;;;12.70;99.90;13.10;99983.00;;;;333813;29;93111;-87
2022/03/17 00:53:48;;;;;;;;;;;12.70;99.90;13.10;99984.00;;;;333401;29;92217;-87
2022/03/17 00:53:59;;;;;;;;;;;12.70;99.90;13.10;99984.00;;;;333645;29;93619;-87
2022/03/17 00:54:11;;;;;;;;;;;12.70;99.90;13.10;99988.00;;;;333517;29;91271;-86
2022/03/17 00:54:23;;;;;;;;;;;12.80;99.90;13.20;99984.00;;;;335024;29;95018;-87
2022/03/17 00:54:35;;;;;;;;;;;12.70;99.90;13.10;99985.00;;;;333557;29;91883;-87
2022/03/17 00:54:47;;;;;;;;;;;12.80;99.90;13.20;99988.00;;;;336288;28;96401;-86
2022/03/17 00:54:59;;;;;;;;;;;12.80;99.90;13.10;99980.00;;;;334650;29;92136;-86
2022/03/17 00:55:11;;;;;;;;;;;12.80;99.90;13.10;99987.00;;;;334949;29;95408;-86
2022/03/17 00:55:23;;;;;;;;;;;12.70;99.90;13.10;99985.00;;;;336165;28;91884;-87
2022/03/17 00:55:34;;;;;;;;;;;12.80;99.90;13.10;99985.00;;;;334902;29;95732;-87
2022/03/17 00:55:46;;;;;;;;;;;12.80;99.90;13.10;99982.00;;;;336195;28;91867;-87
2022/03/17 00:55:58;;;;;;;;;;;12.70;99.90;13.10;99991.00;;;;334660;29;93808;-87
2022/03/17 00:56:10;;;;;;;;;;;12.70;99.90;13.10;99985.00;;;;335984;28;91421;-86
2022/03/17 00:56:21;;;;;;;;;;;12.70;99.90;13.10;99992.00;;;;335983;28;95702;-87
2022/03/17 00:56:33;;;;;;;;;;;12.70;99.90;13.10;99986.00;;;;334619;29;92008;-87
2022/03/17 00:56:45;;;;;;;;;;;12.70;99.90;13.00;99979.00;;;;332544;29;93434;-87
2022/03/17 00:56:57;;;;;;;;;;;12.70;99.90;13.00;99981.00;;;;335830;28;92313;-87
2022/03/17 00:57:09;;;;;;;;;;;12.70;99.90;13.00;99980.00;;;;337550;28;96467;-87
2022/03/17 00:57:20;;;;;;;;;;;12.70;99.90;13.00;99982.00;;;;334840;29;91986;-87
2022/03/17 00:57:34;;;;;;;;;;;12.70;99.90;13.00;99985.00;;;;334995;29;92389;-87
2022/03/17 00:57:46;;;;;;;;;;;12.70;99.90;13.00;99985.00;;;;334854;29;91960;-87
2022/03/17 00:57:57;;;;;;;;;;;12.70;99.90;13.00;99984.00;;;;335040;29;93096;-87
2022/03/17 00:58:10;;;;;;;;;;;12.70;99.90;13.00;99993.00;;;;334909;29;90339;-87
2022/03/17 00:58:22;;;;;;;;;;;12.70;99.90;12.90;99992.00;;;;336234;28;95896;-86
2022/03/17 00:58:34;;;;;;;;;;;12.70;99.90;12.80;99987.00;;;;333507;29;91995;-87
2022/03/17 00:58:47;;;;;;;;;;;12.70;99.90;12.80;99989.00;;;;334719;29;96193;-86
2022/03/17 00:59:00;;;;;;;;;;;12.70;99.90;12.80;99992.00;;;;332029;29;94415;-87
2022/03/17 00:59:12;;;;;;;;;;;12.70;99.90;12.90;99983.00;;;;334725;29;95548;-87
2022/03/17 00:59:24;;;;;;;;;;;12.70;99.90;13.00;99985.00;;;;333214;29;91219;-86
2022/03/17 00:59:36;;;;;;;;;;;12.60;99.90;13.00;99980.00;;;;333583;29;93608;-87
2022/03/17 00:59:49;;;;;;;;;;;12.70;99.90;13.00;99986.00;;;;334661;29;92026;-87
2022/03/17 01:00:00;;;;;;;;;;;12.70;99.90;13.00;99990.00;;;;333612;29;95786;-87
2022/03/17 01:00:14;;;;;;;;;;;12.70;99.90;13.00;99980.00;;;;334733;29;91277;-86
2022/03/17 01:00:26;;;;;;;;;;;12.70;99.90;13.00;99979.00;;;;332388;29;93273;-87
2022/03/17 01:00:38;;;;;;;;;;;12.70;99.90;12.90;99981.00;;;;333589;29;91824;-87
2022/03/17 01:00:50;;;;;;;;;;;12.70;99.90;12.90;99991.00;;;;333701;29;95986;-87
2022/03/17 01:01:02;;;;;;;;;;;12.60;99.90;12.90;99985.00;;;;333374;29;92177;-87